sensor_id;sensor_type;location;lat;lon;timestamp;temperature;humidity
41876;DHT22;27555;50.808;4.402;2023-04-30T00:01:55;10.90;99.90
41876;DHT22;27555;50.808;4.402;2023-04-30T00:04:21;11.00;99.90
41876;DHT22;27555;50.808;4.402;2023-04-30T00:06:46;10.90;99.90
41876;DHT22;27555;50.808;4.402;2023-04-30T00:09:12;10.90;99.90
41876;DHT22;27555;50.808;4.402;2023-04-30T00:11:37;10.90;99.90
41876;DHT22;27555;50.808;4.402;2023-04-30T00:14:03;11.00;99.90
41876;DHT22;27555;50.808;4.402;2023-04-30T00:16:29;11.10;99.90
41876;DHT22;27555;50.808;4.402;2023-04-30T00:18:54;11.10;99.90
41876;DHT22;27555;50.808;4.402;2023-04-30T00:21:20;11.20;99.90
41876;DHT22;27555;50.808;4.402;2023-04-30T00:23:45;11.10;99.90
41876;DHT22;27555;50.808;4.402;2023-04-30T00:26:11;11.10;99.90
41876;DHT22;27555;50.808;4.402;2023-04-30T00:28:37;11.10;99.90
41876;DHT22;27555;50.808;4.402;2023-04-30T00:31:02;11.10;99.90
41876;DHT22;27555;50.808;4.402;2023-04-30T00:33:32;11.00;99.90
41876;DHT22;27555;50.808;4.402;2023-04-30T00:35:58;11.00;99.90
41876;DHT22;27555;50.808;4.402;2023-04-30T00:38:23;11.00;99.90
41876;DHT22;27555;50.808;4.402;2023-04-30T00:40:49;11.00;99.90
41876;DHT22;27555;50.808;4.402;2023-04-30T00:43:15;10.90;99.90
41876;DHT22;27555;50.808;4.402;2023-04-30T00:45:40;10.90;99.90
41876;DHT22;27555;50.808;4.402;2023-04-30T00:48:06;10.90;99.90
41876;DHT22;27555;50.808;4.402;2023-04-30T00:50:34;10.90;99.90
41876;DHT22;27555;50.808;4.402;2023-04-30T00:53:00;10.90;99.90
41876;DHT22;27555;50.808;4.402;2023-04-30T00:55:26;10.90;99.90
41876;DHT22;27555;50.808;4.402;2023-04-30T00:57:52;10.80;99.90
41876;DHT22;27555;50.808;4.402;2023-04-30T01:00:18;10.80;99.90
41876;DHT22;27555;50.808;4.402;2023-04-30T01:02:44;10.90;99.90
41876;DHT22;27555;50.808;4.402;2023-04-30T01:05:09;10.80;99.90
41876;DHT22;27555;50.808;4.402;2023-04-30T01:07:35;10.80;99.90
41876;DHT22;27555;50.808;4.402;2023-04-30T01:10:03;10.80;99.90
41876;DHT22;27555;50.808;4.402;2023-04-30T01:15:27;10.60;99.90
41876;DHT22;27555;50.808;4.402;2023-04-30T01:18:12;10.60;99.90
41876;DHT22;27555;50.808;4.402;2023-04-30T01:21:09;10.60;99.90
41876;DHT22;27555;50.808;4.402;2023-04-30T01:28:51;10.40;99.90
41876;DHT22;27555;50.808;4.402;2023-04-30T01:31:19;10.30;99.90
41876;DHT22;27555;50.808;4.402;2023-04-30T01:33:45;10.40;99.90
41876;DHT22;27555;50.808;4.402;2023-04-30T01:37:21;10.40;99.90
41876;DHT22;27555;50.808;4.402;2023-04-30T01:39:34;10.40;99.90
41876;DHT22;27555;50.808;4.402;2023-04-30T01:42:19;10.30;99.90
41876;DHT22;27555;50.808;4.402;2023-04-30T01:48:31;10.20;99.90
41876;DHT22;27555;50.808;4.402;2023-04-30T01:50:50;10.10;99.90
41876;DHT22;27555;50.808;4.402;2023-04-30T01:53:23;10.00;99.90
41876;DHT22;27555;50.808;4.402;2023-04-30T01:55:55;10.10;99.90
41876;DHT22;27555;50.808;4.402;2023-04-30T01:58:23;10.00;99.90
41876;DHT22;27555;50.808;4.402;2023-04-30T02:00:49;9.90;99.90
41876;DHT22;27555;50.808;4.402;2023-04-30T02:03:16;9.80;99.90
41876;DHT22;27555;50.808;4.402;2023-04-30T02:05:42;9.80;99.90
41876;DHT22;27555;50.808;4.402;2023-04-30T02:08:07;9.80;99.90
41876;DHT22;27555;50.808;4.402;2023-04-30T02:10:33;9.90;99.90
41876;DHT22;27555;50.808;4.402;2023-04-30T02:12:59;9.80;99.90
41876;DHT22;27555;50.808;4.402;2023-04-30T02:15:25;9.90;99.90
41876;DHT22;27555;50.808;4.402;2023-04-30T02:17:51;9.80;99.90
41876;DHT22;27555;50.808;4.402;2023-04-30T02:20:17;9.80;99.90
41876;DHT22;27555;50.808;4.402;2023-04-30T02:22:43;9.70;99.90
41876;DHT22;27555;50.808;4.402;2023-04-30T02:25:09;9.70;99.90
41876;DHT22;27555;50.808;4.402;2023-04-30T02:27:36;9.70;99.90
41876;DHT22;27555;50.808;4.402;2023-04-30T02:30:04;9.70;99.90
41876;DHT22;27555;50.808;4.402;2023-04-30T02:32:29;9.80;99.90
41876;DHT22;27555;50.808;4.402;2023-04-30T02:34:55;9.80;99.90
41876;DHT22;27555;50.808;4.402;2023-04-30T02:37:21;9.70;99.90
41876;DHT22;27555;50.808;4.402;2023-04-30T02:39:47;9.70;99.90
41876;DHT22;27555;50.808;4.402;2023-04-30T02:42:13;9.70;99.90
41876;DHT22;27555;50.808;4.402;2023-04-30T02:44:39;9.70;99.90
41876;DHT22;27555;50.808;4.402;2023-04-30T02:47:04;9.70;99.90
41876;DHT22;27555;50.808;4.402;2023-04-30T02:49:30;9.80;99.90
41876;DHT22;27555;50.808;4.402;2023-04-30T02:51:56;9.70;99.90
41876;DHT22;27555;50.808;4.402;2023-04-30T02:54:21;9.60;99.90
41876;DHT22;27555;50.808;4.402;2023-04-30T02:56:47;9.50;99.90
41876;DHT22;27555;50.808;4.402;2023-04-30T02:59:13;9.40;99.90
41876;DHT22;27555;50.808;4.402;2023-04-30T03:01:39;9.40;99.90
41876;DHT22;27555;50.808;4.402;2023-04-30T03:04:06;9.30;99.90
41876;DHT22;27555;50.808;4.402;2023-04-30T03:06:32;9.40;99.90
41876;DHT22;27555;50.808;4.402;2023-04-30T03:08:58;9.40;99.90
41876;DHT22;27555;50.808;4.402;2023-04-30T03:11:24;9.30;99.90
41876;DHT22;27555;50.808;4.402;2023-04-30T03:13:50;9.30;99.90
41876;DHT22;27555;50.808;4.402;2023-04-30T03:16:19;9.30;99.90
41876;DHT22;27555;50.808;4.402;2023-04-30T03:18:46;9.30;99.90
41876;DHT22;27555;50.808;4.402;2023-04-30T03:21:12;9.30;99.90
41876;DHT22;27555;50.808;4.402;2023-04-30T03:23:38;9.30;99.90
41876;DHT22;27555;50.808;4.402;2023-04-30T03:26:04;9.30;99.90
41876;DHT22;27555;50.808;4.402;2023-04-30T03:28:29;9.20;99.90
41876;DHT22;27555;50.808;4.402;2023-04-30T03:30:55;9.20;99.90
41876;DHT22;27555;50.808;4.402;2023-04-30T03:33:21;9.10;99.90
41876;DHT22;27555;50.808;4.402;2023-04-30T03:35:46;9.10;99.90
41876;DHT22;27555;50.808;4.402;2023-04-30T03:38:13;9.10;99.90
41876;DHT22;27555;50.808;4.402;2023-04-30T03:40:39;9.10;99.90
41876;DHT22;27555;50.808;4.402;2023-04-30T03:43:04;9.10;99.90
41876;DHT22;27555;50.808;4.402;2023-04-30T03:45:30;9.10;99.90
41876;DHT22;27555;50.808;4.402;2023-04-30T03:47:56;9.10;99.90
41876;DHT22;27555;50.808;4.402;2023-04-30T03:50:21;9.00;99.90
41876;DHT22;27555;50.808;4.402;2023-04-30T03:52:47;9.00;99.90
41876;DHT22;27555;50.808;4.402;2023-04-30T03:55:13;8.90;99.90
41876;DHT22;27555;50.808;4.402;2023-04-30T03:57:39;8.90;99.90
41876;DHT22;27555;50.808;4.402;2023-04-30T04:00:08;9.00;99.90
41876;DHT22;27555;50.808;4.402;2023-04-30T04:02:35;9.00;99.90
41876;DHT22;27555;50.808;4.402;2023-04-30T04:05:01;9.00;99.90
41876;DHT22;27555;50.808;4.402;2023-04-30T04:07:27;9.00;99.90
41876;DHT22;27555;50.808;4.402;2023-04-30T04:09:53;8.90;99.90
41876;DHT22;27555;50.808;4.402;2023-04-30T04:12:18;8.90;99.90
41876;DHT22;27555;50.808;4.402;2023-04-30T04:14:44;8.90;99.90
41876;DHT22;27555;50.808;4.402;2023-04-30T04:17:10;8.80;99.90
41876;DHT22;27555;50.808;4.402;2023-04-30T04:19:36;8.80;99.90
41876;DHT22;27555;50.808;4.402;2023-04-30T04:22:01;8.80;99.90
41876;DHT22;27555;50.808;4.402;2023-04-30T04:24:27;8.80;99.90
41876;DHT22;27555;50.808;4.402;2023-04-30T04:26:53;8.90;99.90
41876;DHT22;27555;50.808;4.402;2023-04-30T04:29:20;8.90;99.90
41876;DHT22;27555;50.808;4.402;2023-04-30T04:31:46;8.90;99.90
41876;DHT22;27555;50.808;4.402;2023-04-30T04:34:13;9.00;99.90
41876;DHT22;27555;50.808;4.402;2023-04-30T04:36:39;9.00;99.90
41876;DHT22;27555;50.808;4.402;2023-04-30T04:39:04;8.90;99.90
41876;DHT22;27555;50.808;4.402;2023-04-30T04:41:31;8.80;99.90
41876;DHT22;27555;50.808;4.402;2023-04-30T04:43:58;8.80;99.90
41876;DHT22;27555;50.808;4.402;2023-04-30T04:46:24;8.70;99.90
41876;DHT22;27555;50.808;4.402;2023-04-30T04:48:51;8.80;99.90
41876;DHT22;27555;50.808;4.402;2023-04-30T04:51:17;8.80;99.90
41876;DHT22;27555;50.808;4.402;2023-04-30T04:53:43;8.80;99.90
41876;DHT22;27555;50.808;4.402;2023-04-30T04:56:08;8.90;99.90
41876;DHT22;27555;50.808;4.402;2023-04-30T04:58:34;8.90;99.90
41876;DHT22;27555;50.808;4.402;2023-04-30T05:01:00;9.00;99.90
41876;DHT22;27555;50.808;4.402;2023-04-30T05:03:27;9.00;99.90
41876;DHT22;27555;50.808;4.402;2023-04-30T05:05:53;9.00;99.90
41876;DHT22;27555;50.808;4.402;2023-04-30T05:08:20;9.10;99.90
41876;DHT22;27555;50.808;4.402;2023-04-30T05:10:45;9.10;99.90
41876;DHT22;27555;50.808;4.402;2023-04-30T05:13:11;9.10;99.90
41876;DHT22;27555;50.808;4.402;2023-04-30T05:15:37;9.00;99.90
41876;DHT22;27555;50.808;4.402;2023-04-30T05:18:03;8.90;99.90
41876;DHT22;27555;50.808;4.402;2023-04-30T05:20:29;9.20;99.90
41876;DHT22;27555;50.808;4.402;2023-04-30T05:22:54;9.20;99.90
41876;DHT22;27555;50.808;4.402;2023-04-30T05:25:20;9.40;99.90
41876;DHT22;27555;50.808;4.402;2023-04-30T05:27:45;9.50;99.90
41876;DHT22;27555;50.808;4.402;2023-04-30T05:30:11;9.60;99.90
41876;DHT22;27555;50.808;4.402;2023-04-30T05:32:37;9.70;99.90
41876;DHT22;27555;50.808;4.402;2023-04-30T05:35:03;9.70;99.90
41876;DHT22;27555;50.808;4.402;2023-04-30T05:37:28;9.80;99.90
41876;DHT22;27555;50.808;4.402;2023-04-30T05:39:54;9.80;99.90
41876;DHT22;27555;50.808;4.402;2023-04-30T05:42:20;10.00;99.90
41876;DHT22;27555;50.808;4.402;2023-04-30T05:44:47;10.00;99.90
41876;DHT22;27555;50.808;4.402;2023-04-30T05:47:13;9.90;99.90
41876;DHT22;27555;50.808;4.402;2023-04-30T05:49:38;10.00;99.90
41876;DHT22;27555;50.808;4.402;2023-04-30T05:52:04;10.10;99.90
41876;DHT22;27555;50.808;4.402;2023-04-30T05:54:30;10.00;99.90
41876;DHT22;27555;50.808;4.402;2023-04-30T05:56:56;10.10;99.90
41876;DHT22;27555;50.808;4.402;2023-04-30T05:59:21;10.20;99.90
41876;DHT22;27555;50.808;4.402;2023-04-30T06:01:47;10.30;99.90
41876;DHT22;27555;50.808;4.402;2023-04-30T06:04:13;10.40;99.90
41876;DHT22;27555;50.808;4.402;2023-04-30T06:06:39;10.30;99.90
41876;DHT22;27555;50.808;4.402;2023-04-30T06:09:06;10.30;99.90
41876;DHT22;27555;50.808;4.402;2023-04-30T06:11:32;10.70;99.90
41876;DHT22;27555;50.808;4.402;2023-04-30T06:13:57;10.60;99.90
41876;DHT22;27555;50.808;4.402;2023-04-30T06:16:23;10.60;99.90
41876;DHT22;27555;50.808;4.402;2023-04-30T06:18:49;10.80;99.90
41876;DHT22;27555;50.808;4.402;2023-04-30T06:21:15;11.00;99.90
41876;DHT22;27555;50.808;4.402;2023-04-30T06:23:40;10.90;99.90
41876;DHT22;27555;50.808;4.402;2023-04-30T06:26:06;10.90;99.90
41876;DHT22;27555;50.808;4.402;2023-04-30T06:28:31;11.10;99.90
41876;DHT22;27555;50.808;4.402;2023-04-30T06:30:57;11.10;99.90
41876;DHT22;27555;50.808;4.402;2023-04-30T06:33:23;11.20;99.90
41876;DHT22;27555;50.808;4.402;2023-04-30T06:35:49;11.50;99.90
41876;DHT22;27555;50.808;4.402;2023-04-30T06:38:20;11.50;99.90
41876;DHT22;27555;50.808;4.402;2023-04-30T06:40:45;11.70;99.90
41876;DHT22;27555;50.808;4.402;2023-04-30T06:43:11;11.80;99.90
41876;DHT22;27555;50.808;4.402;2023-04-30T06:45:37;11.60;99.90
41876;DHT22;27555;50.808;4.402;2023-04-30T06:48:03;11.60;99.90
41876;DHT22;27555;50.808;4.402;2023-04-30T06:50:30;11.70;99.90
41876;DHT22;27555;50.808;4.402;2023-04-30T06:52:55;11.80;99.90
41876;DHT22;27555;50.808;4.402;2023-04-30T06:55:21;12.00;99.90
41876;DHT22;27555;50.808;4.402;2023-04-30T06:57:47;12.30;99.90
41876;DHT22;27555;50.808;4.402;2023-04-30T07:00:12;12.50;99.90
41876;DHT22;27555;50.808;4.402;2023-04-30T07:02:40;12.80;99.90
41876;DHT22;27555;50.808;4.402;2023-04-30T07:05:05;12.80;99.90
41876;DHT22;27555;50.808;4.402;2023-04-30T07:07:31;12.90;99.90
41876;DHT22;27555;50.808;4.402;2023-04-30T07:09:57;13.10;99.90
41876;DHT22;27555;50.808;4.402;2023-04-30T07:12:23;13.40;99.90
41876;DHT22;27555;50.808;4.402;2023-04-30T07:14:49;13.30;99.90
41876;DHT22;27555;50.808;4.402;2023-04-30T07:17:15;13.20;99.90
41876;DHT22;27555;50.808;4.402;2023-04-30T07:19:40;13.20;99.90
41876;DHT22;27555;50.808;4.402;2023-04-30T07:22:06;13.10;99.90
41876;DHT22;27555;50.808;4.402;2023-04-30T07:24:32;12.90;99.90
41876;DHT22;27555;50.808;4.402;2023-04-30T07:26:58;12.80;99.90
41876;DHT22;27555;50.808;4.402;2023-04-30T07:29:27;12.80;99.90
41876;DHT22;27555;50.808;4.402;2023-04-30T07:31:53;13.70;99.90
41876;DHT22;27555;50.808;4.402;2023-04-30T07:34:19;15.40;99.90
41876;DHT22;27555;50.808;4.402;2023-04-30T07:36:46;17.00;98.10
41876;DHT22;27555;50.808;4.402;2023-04-30T07:39:12;17.50;97.10
41876;DHT22;27555;50.808;4.402;2023-04-30T07:41:38;18.40;96.20
41876;DHT22;27555;50.808;4.402;2023-04-30T07:44:04;19.20;94.90
41876;DHT22;27555;50.808;4.402;2023-04-30T07:46:29;19.50;94.20
41876;DHT22;27555;50.808;4.402;2023-04-30T07:48:55;20.30;93.30
41876;DHT22;27555;50.808;4.402;2023-04-30T07:51:21;21.10;92.50
41876;DHT22;27555;50.808;4.402;2023-04-30T07:53:47;22.00;91.90
41876;DHT22;27555;50.808;4.402;2023-04-30T07:56:12;22.40;90.60
41876;DHT22;27555;50.808;4.402;2023-04-30T07:58:38;22.30;90.40
41876;DHT22;27555;50.808;4.402;2023-04-30T08:01:03;23.00;90.10
41876;DHT22;27555;50.808;4.402;2023-04-30T08:03:29;23.50;88.40
41876;DHT22;27555;50.808;4.402;2023-04-30T08:05:56;23.30;88.80
41876;DHT22;27555;50.808;4.402;2023-04-30T08:08:21;22.70;88.80
41876;DHT22;27555;50.808;4.402;2023-04-30T08:10:47;22.20;90.00
41876;DHT22;27555;50.808;4.402;2023-04-30T08:13:12;23.00;88.10
41876;DHT22;27555;50.808;4.402;2023-04-30T08:15:38;23.50;87.50
41876;DHT22;27555;50.808;4.402;2023-04-30T08:18:04;23.10;86.60
41876;DHT22;27555;50.808;4.402;2023-04-30T08:20:31;23.80;86.00
41876;DHT22;27555;50.808;4.402;2023-04-30T08:22:57;24.50;84.80
41876;DHT22;27555;50.808;4.402;2023-04-30T08:25:22;24.60;83.50
41876;DHT22;27555;50.808;4.402;2023-04-30T08:27:48;24.50;83.80
41876;DHT22;27555;50.808;4.402;2023-04-30T08:30:14;24.00;84.20
41876;DHT22;27555;50.808;4.402;2023-04-30T08:32:39;24.40;83.30
41876;DHT22;27555;50.808;4.402;2023-04-30T08:35:06;24.10;83.00
41876;DHT22;27555;50.808;4.402;2023-04-30T08:37:32;23.70;83.90
41876;DHT22;27555;50.808;4.402;2023-04-30T08:39:58;23.70;83.00
41876;DHT22;27555;50.808;4.402;2023-04-30T08:42:25;24.00;82.70
41876;DHT22;27555;50.808;4.402;2023-04-30T08:44:52;24.60;82.60
41876;DHT22;27555;50.808;4.402;2023-04-30T08:47:19;25.10;81.00
41876;DHT22;27555;50.808;4.402;2023-04-30T08:49:46;25.50;80.80
41876;DHT22;27555;50.808;4.402;2023-04-30T08:52:12;25.70;79.70
41876;DHT22;27555;50.808;4.402;2023-04-30T08:54:37;24.90;79.40
41876;DHT22;27555;50.808;4.402;2023-04-30T08:57:04;25.30;79.30
41876;DHT22;27555;50.808;4.402;2023-04-30T08:59:30;25.60;79.00
41876;DHT22;27555;50.808;4.402;2023-04-30T09:01:55;26.00;78.10
41876;DHT22;27555;50.808;4.402;2023-04-30T09:04:21;25.70;78.60
41876;DHT22;27555;50.808;4.402;2023-04-30T09:06:47;25.70;78.20
41876;DHT22;27555;50.808;4.402;2023-04-30T09:09:14;25.90;77.50
41876;DHT22;27555;50.808;4.402;2023-04-30T09:11:40;25.40;76.20
41876;DHT22;27555;50.808;4.402;2023-04-30T09:14:06;25.60;76.40
41876;DHT22;27555;50.808;4.402;2023-04-30T09:16:48;25.80;76.10
41876;DHT22;27555;50.808;4.402;2023-04-30T09:19:24;25.80;76.50
41876;DHT22;27555;50.808;4.402;2023-04-30T09:21:50;25.90;76.10
41876;DHT22;27555;50.808;4.402;2023-04-30T09:24:16;26.40;75.30
41876;DHT22;27555;50.808;4.402;2023-04-30T09:26:42;26.70;75.50
41876;DHT22;27555;50.808;4.402;2023-04-30T09:29:08;26.70;75.20
41876;DHT22;27555;50.808;4.402;2023-04-30T09:31:38;26.60;74.30
41876;DHT22;27555;50.808;4.402;2023-04-30T09:34:04;26.50;74.00
41876;DHT22;27555;50.808;4.402;2023-04-30T09:36:31;26.00;73.90
41876;DHT22;27555;50.808;4.402;2023-04-30T09:39:08;26.10;73.40
41876;DHT22;27555;50.808;4.402;2023-04-30T09:41:36;25.20;74.00
41876;DHT22;27555;50.808;4.402;2023-04-30T09:44:01;25.20;73.90
41876;DHT22;27555;50.808;4.402;2023-04-30T09:46:32;25.70;72.90
41876;DHT22;27555;50.808;4.402;2023-04-30T09:48:59;25.50;72.80
41876;DHT22;27555;50.808;4.402;2023-04-30T09:51:26;25.50;73.40
41876;DHT22;27555;50.808;4.402;2023-04-30T09:53:53;25.80;73.70
41876;DHT22;27555;50.808;4.402;2023-04-30T09:56:23;26.60;72.90
41876;DHT22;27555;50.808;4.402;2023-04-30T09:58:54;26.60;73.40
41876;DHT22;27555;50.808;4.402;2023-04-30T10:01:22;26.80;73.60
41876;DHT22;27555;50.808;4.402;2023-04-30T10:03:52;27.70;72.20
41876;DHT22;27555;50.808;4.402;2023-04-30T10:06:20;27.80;72.30
41876;DHT22;27555;50.808;4.402;2023-04-30T10:08:48;27.10;72.40
41876;DHT22;27555;50.808;4.402;2023-04-30T10:11:20;27.30;73.10
41876;DHT22;27555;50.808;4.402;2023-04-30T10:13:58;27.30;71.90
41876;DHT22;27555;50.808;4.402;2023-04-30T10:19:09;26.40;71.80
41876;DHT22;27555;50.808;4.402;2023-04-30T10:21:39;26.20;71.80
41876;DHT22;27555;50.808;4.402;2023-04-30T10:24:08;25.90;72.30
41876;DHT22;27555;50.808;4.402;2023-04-30T10:26:35;26.50;70.80
41876;DHT22;27555;50.808;4.402;2023-04-30T10:29:01;26.60;70.90
41876;DHT22;27555;50.808;4.402;2023-04-30T10:31:28;27.60;70.50
41876;DHT22;27555;50.808;4.402;2023-04-30T10:34:21;28.00;69.20
41876;DHT22;27555;50.808;4.402;2023-04-30T10:36:56;28.10;70.00
41876;DHT22;27555;50.808;4.402;2023-04-30T10:39:24;26.60;69.90
41876;DHT22;27555;50.808;4.402;2023-04-30T10:42:02;26.90;68.60
41876;DHT22;27555;50.808;4.402;2023-04-30T10:44:35;26.50;68.80
41876;DHT22;27555;50.808;4.402;2023-04-30T10:47:02;27.00;68.60
41876;DHT22;27555;50.808;4.402;2023-04-30T10:49:28;26.50;69.20
41876;DHT22;27555;50.808;4.402;2023-04-30T10:51:56;27.20;68.80
41876;DHT22;27555;50.808;4.402;2023-04-30T10:54:27;27.90;68.60
41876;DHT22;27555;50.808;4.402;2023-04-30T10:57:07;27.70;67.40
41876;DHT22;27555;50.808;4.402;2023-04-30T10:59:34;27.20;66.70
41876;DHT22;27555;50.808;4.402;2023-04-30T11:02:00;27.20;68.20
41876;DHT22;27555;50.808;4.402;2023-04-30T11:04:26;26.70;69.80
41876;DHT22;27555;50.808;4.402;2023-04-30T11:09:45;27.60;68.40
41876;DHT22;27555;50.808;4.402;2023-04-30T11:12:15;27.70;69.00
41876;DHT22;27555;50.808;4.402;2023-04-30T11:14:46;27.50;68.60
41876;DHT22;27555;50.808;4.402;2023-04-30T11:17:23;27.30;69.00
41876;DHT22;27555;50.808;4.402;2023-04-30T11:19:51;27.00;68.40
41876;DHT22;27555;50.808;4.402;2023-04-30T11:22:20;26.60;69.00
41876;DHT22;27555;50.808;4.402;2023-04-30T11:27:29;26.40;69.00
41876;DHT22;27555;50.808;4.402;2023-04-30T11:29:56;26.10;67.60
41876;DHT22;27555;50.808;4.402;2023-04-30T11:32:24;26.40;67.80
41876;DHT22;27555;50.808;4.402;2023-04-30T11:34:51;26.30;69.00
41876;DHT22;27555;50.808;4.402;2023-04-30T11:37:26;25.20;69.80
41876;DHT22;27555;50.808;4.402;2023-04-30T11:39:54;24.80;70.10
41876;DHT22;27555;50.808;4.402;2023-04-30T11:42:20;26.10;69.10
41876;DHT22;27555;50.808;4.402;2023-04-30T11:44:46;26.70;67.40
41876;DHT22;27555;50.808;4.402;2023-04-30T11:47:13;26.90;67.50
41876;DHT22;27555;50.808;4.402;2023-04-30T11:49:40;26.40;67.10
41876;DHT22;27555;50.808;4.402;2023-04-30T11:52:06;26.50;67.90
41876;DHT22;27555;50.808;4.402;2023-04-30T11:54:37;26.70;68.40
41876;DHT22;27555;50.808;4.402;2023-04-30T11:57:04;26.80;69.00
41876;DHT22;27555;50.808;4.402;2023-04-30T11:59:30;27.30;68.40
41876;DHT22;27555;50.808;4.402;2023-04-30T12:01:57;27.30;68.70
41876;DHT22;27555;50.808;4.402;2023-04-30T12:04:23;26.80;68.70
41876;DHT22;27555;50.808;4.402;2023-04-30T12:06:49;25.60;69.60
41876;DHT22;27555;50.808;4.402;2023-04-30T12:09:15;25.50;70.50
41876;DHT22;27555;50.808;4.402;2023-04-30T12:11:41;25.00;70.90
41876;DHT22;27555;50.808;4.402;2023-04-30T12:14:08;25.20;70.20
41876;DHT22;27555;50.808;4.402;2023-04-30T12:16:46;25.10;70.00
41876;DHT22;27555;50.808;4.402;2023-04-30T12:19:16;24.90;68.20
41876;DHT22;27555;50.808;4.402;2023-04-30T12:21:43;24.20;68.80
41876;DHT22;27555;50.808;4.402;2023-04-30T12:24:11;23.70;70.50
41876;DHT22;27555;50.808;4.402;2023-04-30T12:26:38;23.20;71.80
41876;DHT22;27555;50.808;4.402;2023-04-30T12:31:38;22.20;73.70
41876;DHT22;27555;50.808;4.402;2023-04-30T12:34:08;22.20;74.30
41876;DHT22;27555;50.808;4.402;2023-04-30T12:36:34;21.90;72.00
41876;DHT22;27555;50.808;4.402;2023-04-30T12:39:10;22.10;72.10
41876;DHT22;27555;50.808;4.402;2023-04-30T12:41:40;22.50;72.50
41876;DHT22;27555;50.808;4.402;2023-04-30T12:44:16;22.10;73.30
41876;DHT22;27555;50.808;4.402;2023-04-30T12:46:42;21.60;73.10
41876;DHT22;27555;50.808;4.402;2023-04-30T12:49:08;21.30;73.70
41876;DHT22;27555;50.808;4.402;2023-04-30T12:51:35;21.40;74.90
41876;DHT22;27555;50.808;4.402;2023-04-30T12:54:01;21.20;74.70
41876;DHT22;27555;50.808;4.402;2023-04-30T12:56:27;21.00;74.30
41876;DHT22;27555;50.808;4.402;2023-04-30T12:58:52;21.20;74.50
41876;DHT22;27555;50.808;4.402;2023-04-30T13:01:21;21.20;74.20
41876;DHT22;27555;50.808;4.402;2023-04-30T13:03:50;21.50;73.70
41876;DHT22;27555;50.808;4.402;2023-04-30T13:06:16;21.50;74.10
41876;DHT22;27555;50.808;4.402;2023-04-30T13:08:43;21.40;73.70
41876;DHT22;27555;50.808;4.402;2023-04-30T13:11:09;21.40;73.30
41876;DHT22;27555;50.808;4.402;2023-04-30T13:13:35;21.70;73.50
41876;DHT22;27555;50.808;4.402;2023-04-30T13:16:01;21.70;72.90
41876;DHT22;27555;50.808;4.402;2023-04-30T13:18:27;21.70;74.10
41876;DHT22;27555;50.808;4.402;2023-04-30T13:20:52;21.60;74.50
41876;DHT22;27555;50.808;4.402;2023-04-30T13:23:19;21.60;73.90
41876;DHT22;27555;50.808;4.402;2023-04-30T13:25:45;21.70;73.00
41876;DHT22;27555;50.808;4.402;2023-04-30T13:28:11;21.80;73.70
41876;DHT22;27555;50.808;4.402;2023-04-30T13:30:36;21.60;73.30
41876;DHT22;27555;50.808;4.402;2023-04-30T13:33:02;21.30;73.70
41876;DHT22;27555;50.808;4.402;2023-04-30T13:35:28;20.90;73.70
41876;DHT22;27555;50.808;4.402;2023-04-30T13:37:54;21.00;74.00
41876;DHT22;27555;50.808;4.402;2023-04-30T13:40:20;21.40;72.40
41876;DHT22;27555;50.808;4.402;2023-04-30T13:42:47;21.50;73.10
41876;DHT22;27555;50.808;4.402;2023-04-30T13:45:13;21.40;72.90
41876;DHT22;27555;50.808;4.402;2023-04-30T13:47:39;21.40;73.50
41876;DHT22;27555;50.808;4.402;2023-04-30T13:50:05;21.30;73.30
41876;DHT22;27555;50.808;4.402;2023-04-30T13:52:31;21.00;74.30
41876;DHT22;27555;50.808;4.402;2023-04-30T13:54:57;20.70;74.80
41876;DHT22;27555;50.808;4.402;2023-04-30T13:57:23;20.70;74.20
41876;DHT22;27555;50.808;4.402;2023-04-30T13:59:49;20.60;73.60
41876;DHT22;27555;50.808;4.402;2023-04-30T14:02:15;20.50;74.60
41876;DHT22;27555;50.808;4.402;2023-04-30T14:04:41;21.00;74.30
41876;DHT22;27555;50.808;4.402;2023-04-30T14:07:07;20.80;75.00
41876;DHT22;27555;50.808;4.402;2023-04-30T14:09:33;20.90;75.30
41876;DHT22;27555;50.808;4.402;2023-04-30T14:11:58;21.10;74.50
41876;DHT22;27555;50.808;4.402;2023-04-30T14:14:25;21.20;75.00
41876;DHT22;27555;50.808;4.402;2023-04-30T14:16:51;21.00;75.20
41876;DHT22;27555;50.808;4.402;2023-04-30T14:19:17;20.80;74.60
41876;DHT22;27555;50.808;4.402;2023-04-30T14:21:42;20.60;75.40
41876;DHT22;27555;50.808;4.402;2023-04-30T14:24:08;20.70;75.60
41876;DHT22;27555;50.808;4.402;2023-04-30T14:26:37;21.00;74.90
41876;DHT22;27555;50.808;4.402;2023-04-30T14:29:03;21.10;74.50
41876;DHT22;27555;50.808;4.402;2023-04-30T14:31:28;21.10;73.70
41876;DHT22;27555;50.808;4.402;2023-04-30T14:33:54;21.30;74.30
41876;DHT22;27555;50.808;4.402;2023-04-30T14:36:20;21.00;74.10
41876;DHT22;27555;50.808;4.402;2023-04-30T14:38:46;21.00;74.10
41876;DHT22;27555;50.808;4.402;2023-04-30T14:41:11;20.70;74.10
41876;DHT22;27555;50.808;4.402;2023-04-30T14:43:37;20.70;74.60
41876;DHT22;27555;50.808;4.402;2023-04-30T14:46:03;20.30;75.50
41876;DHT22;27555;50.808;4.402;2023-04-30T14:48:29;20.30;76.00
41876;DHT22;27555;50.808;4.402;2023-04-30T14:50:54;20.20;76.10
41876;DHT22;27555;50.808;4.402;2023-04-30T14:53:20;20.40;75.70
41876;DHT22;27555;50.808;4.402;2023-04-30T14:55:46;20.50;75.40
41876;DHT22;27555;50.808;4.402;2023-04-30T14:58:11;20.60;75.40
41876;DHT22;27555;50.808;4.402;2023-04-30T15:00:37;20.70;74.80
41876;DHT22;27555;50.808;4.402;2023-04-30T15:03:02;20.70;74.90
41876;DHT22;27555;50.808;4.402;2023-04-30T15:05:28;21.10;74.20
41876;DHT22;27555;50.808;4.402;2023-04-30T15:07:54;21.30;74.60
41876;DHT22;27555;50.808;4.402;2023-04-30T15:10:20;21.60;74.10
41876;DHT22;27555;50.808;4.402;2023-04-30T15:12:45;21.60;73.80
41876;DHT22;27555;50.808;4.402;2023-04-30T15:15:11;21.50;73.00
41876;DHT22;27555;50.808;4.402;2023-04-30T15:17:37;21.50;73.10
41876;DHT22;27555;50.808;4.402;2023-04-30T15:20:04;21.50;73.20
41876;DHT22;27555;50.808;4.402;2023-04-30T15:22:30;21.30;73.90
41876;DHT22;27555;50.808;4.402;2023-04-30T15:24:55;21.00;74.20
41876;DHT22;27555;50.808;4.402;2023-04-30T15:27:23;21.00;74.60
41876;DHT22;27555;50.808;4.402;2023-04-30T15:29:49;21.00;74.50
41876;DHT22;27555;50.808;4.402;2023-04-30T15:32:14;20.80;75.10
41876;DHT22;27555;50.808;4.402;2023-04-30T15:34:41;21.00;75.30
41876;DHT22;27555;50.808;4.402;2023-04-30T15:37:07;21.10;74.30
41876;DHT22;27555;50.808;4.402;2023-04-30T15:39:32;20.90;74.40
41876;DHT22;27555;50.808;4.402;2023-04-30T15:41:59;21.10;74.30
41876;DHT22;27555;50.808;4.402;2023-04-30T15:44:26;20.60;75.00
41876;DHT22;27555;50.808;4.402;2023-04-30T15:46:52;20.60;75.00
41876;DHT22;27555;50.808;4.402;2023-04-30T15:49:17;20.30;75.80
41876;DHT22;27555;50.808;4.402;2023-04-30T15:51:43;20.30;76.30
41876;DHT22;27555;50.808;4.402;2023-04-30T15:54:10;20.80;75.00
41876;DHT22;27555;50.808;4.402;2023-04-30T15:56:38;20.80;75.20